Time,TemperatureF,DewpointF,PressureIn,WindDirection,WindDirectionDegrees,WindSpeedMPH,WindSpeedGustMPH,Humidity,HourlyPrecipIn,Conditions,Clouds,dailyrainin,SolarRadiationWatts/m^2,SoftwareType,DateUTC
2013-05-11 00:03:00,57.0,56.0,-100.00,SSE,163,1.0,8.0,96,0.04,,,0.75,0.000000,,2013-05-11 04:03:00,
2013-05-11 00:33:00,58.0,57.0,-100.00,South,172,2.0,7.0,96,0.00,,,0.75,0.000000,,2013-05-11 04:33:00,
2013-05-11 00:43:00,58.0,57.0,-100.00,South,172,2.0,7.0,96,0.00,,,0.75,0.000000,,2013-05-11 04:43:00,
2013-05-11 00:52:00,58.0,57.0,-100.00,South,172,2.0,7.0,96,0.00,,,0.75,0.000000,,2013-05-11 04:52:00,
2013-05-11 01:02:00,58.0,57.0,-100.00,South,172,2.0,7.0,96,0.00,,,0.75,0.000000,,2013-05-11 05:02:00,
2013-05-11 01:32:00,58.0,56.0,-100.00,South,174,5.0,10.0,93,0.01,,,0.76,0.000000,,2013-05-11 05:32:00,
2013-05-11 01:42:00,58.0,56.0,-100.00,South,174,5.0,10.0,93,0.01,,,0.76,0.000000,,2013-05-11 05:42:00,
2013-05-11 01:52:00,58.0,56.0,-100.00,South,174,5.0,10.0,93,0.01,,,0.76,0.000000,,2013-05-11 05:52:00,
2013-05-11 02:02:00,58.0,56.0,-100.00,South,174,5.0,10.0,93,0.01,,,0.76,0.000000,,2013-05-11 06:02:00,
2013-05-11 02:32:00,59.0,57.0,-100.00,South,183,4.0,11.0,93,0.00,,,0.76,0.000000,,2013-05-11 06:32:00,
2013-05-11 02:42:00,59.0,57.0,-100.00,South,183,4.0,11.0,93,0.00,,,0.76,0.000000,,2013-05-11 06:42:00,
2013-05-11 02:53:00,59.0,57.0,-100.00,South,183,4.0,11.0,93,0.00,,,0.76,0.000000,,2013-05-11 06:53:00,
2013-05-11 03:02:00,59.0,57.0,-100.00,South,183,4.0,11.0,93,0.00,,,0.76,0.000000,,2013-05-11 07:02:00,
2013-05-11 03:32:00,59.0,57.0,-100.00,South,179,5.0,8.0,93,0.00,,,-99.99,0.000000,,2013-05-11 07:32:00,
2013-05-11 03:42:00,59.0,57.0,-100.00,South,179,5.0,8.0,93,0.00,,,-99.99,0.000000,,2013-05-11 07:42:00,
2013-05-11 03:52:00,59.0,57.0,-100.00,South,179,5.0,8.0,93,0.00,,,-99.99,0.000000,,2013-05-11 07:52:00,
2013-05-11 04:02:00,59.0,57.0,-100.00,South,179,5.0,8.0,93,0.00,,,-99.99,0.000000,,2013-05-11 08:02:00,
2013-05-11 04:32:00,59.0,57.0,-100.00,South,182,4.0,11.0,94,0.01,,,0.77,0.000000,,2013-05-11 08:32:00,
2013-05-11 04:43:00,59.0,57.0,-100.00,South,182,4.0,11.0,94,0.01,,,0.77,0.000000,,2013-05-11 08:43:00,
2013-05-11 04:52:00,59.0,57.0,-100.00,South,182,4.0,11.0,94,0.01,,,0.77,0.000000,,2013-05-11 08:52:00,
2013-05-11 05:01:00,59.0,57.0,-100.00,South,182,4.0,11.0,94,0.01,,,0.77,0.000000,,2013-05-11 09:01:00,
2013-05-11 05:33:00,54.0,52.0,-100.00,WNW,298,3.0,13.0,93,0.10,,,0.87,0.000000,,2013-05-11 09:33:00,
2013-05-11 05:42:00,54.0,52.0,-100.00,WNW,298,3.0,13.0,93,0.10,,,0.87,0.000000,,2013-05-11 09:42:00,
2013-05-11 05:53:00,54.0,52.0,-100.00,WNW,298,3.0,13.0,93,0.10,,,0.87,0.000000,,2013-05-11 09:53:00,
2013-05-11 06:03:00,54.0,52.0,-100.00,WNW,298,3.0,13.0,93,0.10,,,0.87,0.000000,,2013-05-11 10:03:00,
2013-05-11 06:33:00,52.0,50.0,-100.00,NW,326,3.0,11.0,94,0.01,,,0.88,0.000000,,2013-05-11 10:33:00,
2013-05-11 06:42:00,52.0,50.0,-100.00,NW,326,3.0,11.0,94,0.01,,,0.88,0.000000,,2013-05-11 10:42:00,
2013-05-11 06:53:00,52.0,50.0,-100.00,NW,326,3.0,11.0,94,0.01,,,0.88,0.000000,,2013-05-11 10:53:00,
2013-05-11 07:02:00,52.0,50.0,-100.00,NW,326,3.0,11.0,94,0.01,,,0.88,0.000000,,2013-05-11 11:02:00,
2013-05-11 07:32:00,49.0,47.0,-100.00,NNW,334,4.0,11.0,93,0.00,,,-99.99,14.000000,,2013-05-11 11:32:00,
2013-05-11 07:42:00,49.0,47.0,-100.00,NNW,334,4.0,11.0,93,0.00,,,-99.99,14.000000,,2013-05-11 11:42:00,
2013-05-11 07:52:00,49.0,47.0,-100.00,NNW,334,4.0,11.0,93,0.00,,,-99.99,14.000000,,2013-05-11 11:52:00,
2013-05-11 08:01:00,49.0,47.0,-100.00,NNW,334,4.0,11.0,93,0.00,,,-99.99,14.000000,,2013-05-11 12:01:00,
2013-05-11 08:32:00,48.0,45.0,-100.00,NNW,333,5.0,9.0,90,0.00,,,-99.99,59.000000,,2013-05-11 12:32:00,
2013-05-11 08:42:00,48.0,45.0,-100.00,NNW,333,5.0,9.0,90,0.00,,,-99.99,59.000000,,2013-05-11 12:42:00,
2013-05-11 08:52:00,48.0,45.0,-100.00,NNW,333,5.0,9.0,90,0.00,,,-99.99,59.000000,,2013-05-11 12:52:00,
2013-05-11 09:02:00,48.0,45.0,-100.00,NNW,333,5.0,9.0,90,0.00,,,-99.99,59.000000,,2013-05-11 13:02:00,
2013-05-11 09:32:00,48.0,45.0,-100.00,West,264,1.0,11.0,91,0.00,,,-99.99,101.000000,,2013-05-11 13:32:00,
2013-05-11 09:42:00,48.0,45.0,-100.00,West,264,1.0,11.0,91,0.00,,,-99.99,101.000000,,2013-05-11 13:42:00,
2013-05-11 09:52:00,48.0,45.0,-100.00,West,264,1.0,11.0,91,0.00,,,-99.99,101.000000,,2013-05-11 13:52:00,
2013-05-11 10:02:00,48.0,45.0,-100.00,West,264,1.0,11.0,91,0.00,,,-99.99,101.000000,,2013-05-11 14:02:00,
2013-05-11 10:32:00,47.0,44.0,-100.00,WNW,300,3.0,6.0,90,0.00,,,0.88,113.000000,,2013-05-11 14:32:00,
2013-05-11 10:42:00,47.0,44.0,-100.00,WNW,300,3.0,6.0,90,0.00,,,0.88,113.000000,,2013-05-11 14:42:00,
2013-05-11 10:52:00,47.0,44.0,-100.00,WNW,300,3.0,6.0,90,0.00,,,0.88,113.000000,,2013-05-11 14:52:00,
2013-05-11 11:01:00,47.0,44.0,-100.00,WNW,300,3.0,6.0,90,0.00,,,0.88,113.000000,,2013-05-11 15:01:00,
2013-05-11 12:33:00,50.0,45.0,-100.00,West,259,2.0,7.0,82,-99.99,,,0.88,271.000000,,2013-05-11 16:33:00,
2013-05-11 12:42:00,50.0,45.0,-100.00,West,259,2.0,7.0,82,-99.99,,,0.88,271.000000,,2013-05-11 16:42:00,
2013-05-11 12:53:00,50.0,45.0,-100.00,West,259,2.0,7.0,82,-99.99,,,0.88,271.000000,,2013-05-11 16:53:00,
2013-05-11 13:02:00,50.0,45.0,-100.00,West,259,2.0,7.0,82,-99.99,,,0.88,271.000000,,2013-05-11 17:02:00,
2013-05-11 14:32:00,52.0,45.0,-100.00,West,268,2.0,9.0,77,-99.99,,,0.88,253.000000,,2013-05-11 18:32:00,
2013-05-11 14:42:00,52.0,45.0,-100.00,West,268,2.0,9.0,77,-99.99,,,0.88,253.000000,,2013-05-11 18:42:00,
2013-05-11 14:52:00,52.0,45.0,-100.00,West,268,2.0,9.0,77,-99.99,,,0.88,253.000000,,2013-05-11 18:52:00,
2013-05-11 15:02:00,52.0,45.0,-100.00,West,268,2.0,9.0,77,-99.99,,,0.88,253.000000,,2013-05-11 19:02:00,
2013-05-11 15:32:00,52.0,45.0,-100.00,SW,221,3.0,8.0,77,0.00,,,0.88,210.000000,,2013-05-11 19:32:00,
2013-05-11 15:42:00,52.0,45.0,-100.00,SW,221,3.0,8.0,77,0.00,,,0.88,210.000000,,2013-05-11 19:42:00,
2013-05-11 15:53:00,52.0,45.0,-100.00,SW,221,3.0,8.0,77,0.00,,,0.88,210.000000,,2013-05-11 19:53:00,
2013-05-11 16:02:00,52.0,45.0,-100.00,SW,221,3.0,8.0,77,0.00,,,0.88,210.000000,,2013-05-11 20:02:00,
2013-05-11 16:32:00,55.0,46.0,-100.00,West,276,3.0,7.0,71,0.00,,,0.88,302.000000,,2013-05-11 20:32:00,
2013-05-11 16:42:00,55.0,46.0,-100.00,West,276,3.0,7.0,71,0.00,,,0.88,302.000000,,2013-05-11 20:42:00,
2013-05-11 16:52:00,55.0,46.0,-100.00,West,276,3.0,7.0,71,0.00,,,0.88,302.000000,,2013-05-11 20:52:00,
2013-05-11 17:02:00,55.0,46.0,-100.00,West,276,3.0,7.0,71,0.00,,,0.88,302.000000,,2013-05-11 21:02:00,
2013-05-11 17:33:00,55.0,46.0,-100.00,WNW,298,4.0,11.0,72,0.00,,,-99.99,286.000000,,2013-05-11 21:33:00,
2013-05-11 17:43:00,55.0,46.0,-100.00,WNW,298,4.0,11.0,72,0.00,,,-99.99,286.000000,,2013-05-11 21:43:00,
2013-05-11 17:53:00,55.0,46.0,-100.00,WNW,298,4.0,11.0,72,0.00,,,-99.99,286.000000,,2013-05-11 21:53:00,
2013-05-11 18:02:00,55.0,46.0,-100.00,WNW,298,4.0,11.0,72,0.00,,,-99.99,286.000000,,2013-05-11 22:02:00,
2013-05-11 18:33:00,54.0,46.0,-100.00,NW,304,4.0,7.0,73,0.00,,,0.52,166.000000,,2013-05-11 22:33:00,
2013-05-11 18:43:00,54.0,46.0,-100.00,NW,304,4.0,7.0,73,0.00,,,0.52,166.000000,,2013-05-11 22:43:00,
2013-05-11 18:52:00,54.0,46.0,-100.00,NW,304,4.0,7.0,73,0.00,,,0.52,166.000000,,2013-05-11 22:52:00,
2013-05-11 19:02:00,54.0,46.0,-100.00,NW,304,4.0,7.0,73,0.00,,,0.52,166.000000,,2013-05-11 23:02:00,
2013-05-11 19:32:00,52.0,45.0,-100.00,West,264,3.0,8.0,78,0.00,,,0.35,62.000000,,2013-05-11 23:32:00,
2013-05-11 19:42:00,52.0,45.0,-100.00,West,264,3.0,8.0,78,0.00,,,0.35,62.000000,,2013-05-11 23:42:00,
2013-05-11 19:52:00,52.0,45.0,-100.00,West,264,3.0,8.0,78,0.00,,,0.35,62.000000,,2013-05-11 23:52:00,
2013-05-11 20:01:00,52.0,45.0,-100.00,West,264,3.0,8.0,78,0.00,,,0.35,62.000000,,2013-05-12 00:01:00,
2013-05-11 20:32:00,50.0,45.0,-100.00,West,279,3.0,7.0,83,0.00,,,-99.99,25.000000,,2013-05-12 00:32:00,
2013-05-11 20:42:00,50.0,45.0,-100.00,West,279,3.0,7.0,83,0.00,,,-99.99,25.000000,,2013-05-12 00:42:00,
2013-05-11 20:52:00,50.0,45.0,-100.00,West,279,3.0,7.0,83,0.00,,,-99.99,25.000000,,2013-05-12 00:52:00,
2013-05-11 21:01:00,50.0,45.0,-100.00,West,279,3.0,7.0,83,0.00,,,-99.99,25.000000,,2013-05-12 01:01:00,
2013-05-11 21:32:00,49.0,44.0,-100.00,South,183,2.0,6.0,84,0.00,,,0.19,2.000000,,2013-05-12 01:32:00,
2013-05-11 21:42:00,49.0,44.0,-100.00,South,183,2.0,6.0,84,0.00,,,0.19,2.000000,,2013-05-12 01:42:00,
2013-05-11 21:52:00,49.0,44.0,-100.00,South,183,2.0,6.0,84,0.00,,,0.19,2.000000,,2013-05-12 01:52:00,
2013-05-11 22:02:00,49.0,44.0,-100.00,South,183,2.0,6.0,84,0.00,,,0.19,2.000000,,2013-05-12 02:02:00,
2013-05-11 22:32:00,48.0,44.0,-100.00,SSE,148,3.0,5.0,85,0.00,,,0.17,0.000000,,2013-05-12 02:32:00,
2013-05-11 22:42:00,48.0,44.0,-100.00,SSE,148,3.0,5.0,85,0.00,,,0.17,0.000000,,2013-05-12 02:42:00,
2013-05-11 22:52:00,48.0,44.0,-100.00,SSE,148,3.0,5.0,85,0.00,,,0.17,0.000000,,2013-05-12 02:52:00,
2013-05-11 23:01:00,48.0,44.0,-100.00,SSE,148,3.0,5.0,85,0.00,,,0.17,0.000000,,2013-05-12 03:01:00,
2013-05-11 23:33:00,46.0,43.0,-100.00,SE,144,1.0,4.0,90,0.00,,,0.13,0.000000,,2013-05-12 03:33:00,
2013-05-11 23:43:00,46.0,43.0,-100.00,SE,144,1.0,4.0,90,0.00,,,0.13,0.000000,,2013-05-12 03:43:00,
2013-05-11 23:53:00,46.0,43.0,-100.00,SE,144,1.0,4.0,90,0.00,,,0.13,0.000000,,2013-05-12 03:53:00,